sensor_id;sensor_type;location;lat;lon;timestamp;temperature;humidity
4566;DHT22;2295;51.050;14.608;2023-04-03T01:47:17;-1.30;99.90
4566;DHT22;2295;51.050;14.608;2023-04-03T01:49:57;-1.30;99.90
4566;DHT22;2295;51.050;14.608;2023-04-03T01:52:35;-1.40;99.90
4566;DHT22;2295;51.050;14.608;2023-04-03T01:55:21;-1.50;99.90
4566;DHT22;2295;51.050;14.608;2023-04-03T01:58:21;-1.60;99.90
4566;DHT22;2295;51.050;14.608;2023-04-03T02:01:18;-1.70;99.90
4566;DHT22;2295;51.050;14.608;2023-04-03T02:43:52;-2.10;99.90
4566;DHT22;2295;51.050;14.608;2023-04-03T02:47:00;-2.20;99.90
4566;DHT22;2295;51.050;14.608;2023-04-03T03:00:38;-2.30;99.90
4566;DHT22;2295;51.050;14.608;2023-04-03T03:11:34;-2.40;99.90
4566;DHT22;2295;51.050;14.608;2023-04-03T03:14:03;-2.40;99.90
4566;DHT22;2295;51.050;14.608;2023-04-03T03:16:32;-2.50;99.90
4566;DHT22;2295;51.050;14.608;2023-04-03T03:19:01;-2.50;99.90
4566;DHT22;2295;51.050;14.608;2023-04-03T03:21:29;-2.50;99.90
4566;DHT22;2295;51.050;14.608;2023-04-03T03:23:57;-2.60;99.90
4566;DHT22;2295;51.050;14.608;2023-04-03T03:26:25;-2.60;99.90
4566;DHT22;2295;51.050;14.608;2023-04-03T03:28:53;-2.60;99.90
4566;DHT22;2295;51.050;14.608;2023-04-03T03:31:22;-2.60;99.90
4566;DHT22;2295;51.050;14.608;2023-04-03T03:33:53;-2.60;99.90
4566;DHT22;2295;51.050;14.608;2023-04-03T03:36:22;-2.70;99.90
4566;DHT22;2295;51.050;14.608;2023-04-03T03:38:50;-2.70;99.90
4566;DHT22;2295;51.050;14.608;2023-04-03T03:41:18;-2.70;99.90
4566;DHT22;2295;51.050;14.608;2023-04-03T03:43:47;-2.60;99.90
4566;DHT22;2295;51.050;14.608;2023-04-03T03:46:15;-2.60;99.90
4566;DHT22;2295;51.050;14.608;2023-04-03T03:48:44;-2.60;99.90
4566;DHT22;2295;51.050;14.608;2023-04-03T03:51:13;-2.50;99.90
4566;DHT22;2295;51.050;14.608;2023-04-03T03:53:42;-2.50;99.90
4566;DHT22;2295;51.050;14.608;2023-04-03T03:56:10;-2.50;99.90
4566;DHT22;2295;51.050;14.608;2023-04-03T03:58:38;-2.50;99.90
4566;DHT22;2295;51.050;14.608;2023-04-03T04:01:07;-2.50;99.90
4566;DHT22;2295;51.050;14.608;2023-04-03T04:03:35;-2.50;99.90
4566;DHT22;2295;51.050;14.608;2023-04-03T04:06:04;-2.40;99.90
4566;DHT22;2295;51.050;14.608;2023-04-03T04:08:33;-2.40;99.90
4566;DHT22;2295;51.050;14.608;2023-04-03T04:11:02;-2.30;99.90
4566;DHT22;2295;51.050;14.608;2023-04-03T04:13:30;-2.30;99.90
4566;DHT22;2295;51.050;14.608;2023-04-03T04:15:59;-2.20;99.90
4566;DHT22;2295;51.050;14.608;2023-04-03T04:18:27;-2.20;99.90
4566;DHT22;2295;51.050;14.608;2023-04-03T04:20:56;-2.20;99.90
4566;DHT22;2295;51.050;14.608;2023-04-03T04:23:24;-2.10;99.90
4566;DHT22;2295;51.050;14.608;2023-04-03T04:25:54;-2.20;99.90
4566;DHT22;2295;51.050;14.608;2023-04-03T04:28:22;-2.10;99.90
4566;DHT22;2295;51.050;14.608;2023-04-03T04:30:50;-2.10;99.90
4566;DHT22;2295;51.050;14.608;2023-04-03T04:33:19;-2.10;99.90
4566;DHT22;2295;51.050;14.608;2023-04-03T04:35:47;-2.10;99.90
4566;DHT22;2295;51.050;14.608;2023-04-03T04:38:16;-2.10;99.90
4566;DHT22;2295;51.050;14.608;2023-04-03T04:40:45;-2.10;99.90
4566;DHT22;2295;51.050;14.608;2023-04-03T04:43:15;-2.10;99.90
4566;DHT22;2295;51.050;14.608;2023-04-03T04:45:43;-2.00;99.90
4566;DHT22;2295;51.050;14.608;2023-04-03T04:48:12;-2.00;99.90
4566;DHT22;2295;51.050;14.608;2023-04-03T04:50:40;-2.00;99.90
4566;DHT22;2295;51.050;14.608;2023-04-03T04:53:08;-2.00;99.90
4566;DHT22;2295;51.050;14.608;2023-04-03T04:55:36;-2.00;99.90
4566;DHT22;2295;51.050;14.608;2023-04-03T04:58:05;-2.10;99.90
4566;DHT22;2295;51.050;14.608;2023-04-03T05:00:34;-2.10;99.90
4566;DHT22;2295;51.050;14.608;2023-04-03T05:03:03;-2.10;99.90
4566;DHT22;2295;51.050;14.608;2023-04-03T05:05:31;-2.10;99.90
4566;DHT22;2295;51.050;14.608;2023-04-03T05:08:00;-2.00;99.90
4566;DHT22;2295;51.050;14.608;2023-04-03T05:10:28;-2.00;99.90
4566;DHT22;2295;51.050;14.608;2023-04-03T05:12:57;-2.10;99.90
4566;DHT22;2295;51.050;14.608;2023-04-03T05:15:25;-2.00;99.90
4566;DHT22;2295;51.050;14.608;2023-04-03T05:17:55;-2.00;99.90
4566;DHT22;2295;51.050;14.608;2023-04-03T05:20:23;-1.90;99.90
4566;DHT22;2295;51.050;14.608;2023-04-03T05:22:51;-1.90;99.90
4566;DHT22;2295;51.050;14.608;2023-04-03T05:25:19;-1.90;99.90
4566;DHT22;2295;51.050;14.608;2023-04-03T05:27:48;-1.90;99.90
4566;DHT22;2295;51.050;14.608;2023-04-03T05:30:16;-1.90;99.90
4566;DHT22;2295;51.050;14.608;2023-04-03T05:32:45;-2.00;99.90
4566;DHT22;2295;51.050;14.608;2023-04-03T05:35:14;-1.90;99.90
4566;DHT22;2295;51.050;14.608;2023-04-03T05:37:43;-1.90;99.90
4566;DHT22;2295;51.050;14.608;2023-04-03T05:40:11;-1.90;99.90
4566;DHT22;2295;51.050;14.608;2023-04-03T05:42:40;-1.90;99.90
4566;DHT22;2295;51.050;14.608;2023-04-03T05:45:08;-1.80;99.90
4566;DHT22;2295;51.050;14.608;2023-04-03T05:47:37;-1.80;99.90
4566;DHT22;2295;51.050;14.608;2023-04-03T05:50:05;-1.80;99.90
4566;DHT22;2295;51.050;14.608;2023-04-03T05:52:37;-1.70;99.90
4566;DHT22;2295;51.050;14.608;2023-04-03T05:55:07;-1.80;99.90
4566;DHT22;2295;51.050;14.608;2023-04-03T05:57:35;-1.70;99.90
4566;DHT22;2295;51.050;14.608;2023-04-03T06:00:05;-1.70;99.90
4566;DHT22;2295;51.050;14.608;2023-04-03T06:02:36;-1.60;99.90
4566;DHT22;2295;51.050;14.608;2023-04-03T06:05:05;-1.50;99.90
4566;DHT22;2295;51.050;14.608;2023-04-03T06:07:36;-1.50;99.90
4566;DHT22;2295;51.050;14.608;2023-04-03T06:10:05;-1.50;99.90
4566;DHT22;2295;51.050;14.608;2023-04-03T06:12:34;-1.50;99.90
4566;DHT22;2295;51.050;14.608;2023-04-03T06:15:03;-1.50;99.90
4566;DHT22;2295;51.050;14.608;2023-04-03T06:17:31;-1.50;99.90
4566;DHT22;2295;51.050;14.608;2023-04-03T06:20:00;-1.50;99.90
4566;DHT22;2295;51.050;14.608;2023-04-03T06:22:28;-1.50;99.90
4566;DHT22;2295;51.050;14.608;2023-04-03T06:24:59;-1.60;99.90
4566;DHT22;2295;51.050;14.608;2023-04-03T06:27:28;-1.60;99.90
4566;DHT22;2295;51.050;14.608;2023-04-03T06:29:56;-1.60;99.90
4566;DHT22;2295;51.050;14.608;2023-04-03T06:32:24;-1.50;99.90
4566;DHT22;2295;51.050;14.608;2023-04-03T06:34:53;-1.50;99.90
4566;DHT22;2295;51.050;14.608;2023-04-03T06:37:25;-1.50;99.90
4566;DHT22;2295;51.050;14.608;2023-04-03T06:39:55;-1.40;99.90
4566;DHT22;2295;51.050;14.608;2023-04-03T06:42:25;-1.40;99.90
4566;DHT22;2295;51.050;14.608;2023-04-03T06:44:56;-1.40;99.90
4566;DHT22;2295;51.050;14.608;2023-04-03T06:47:24;-1.40;99.90
4566;DHT22;2295;51.050;14.608;2023-04-03T06:49:53;-1.30;99.90
4566;DHT22;2295;51.050;14.608;2023-04-03T06:52:21;-1.30;99.90
4566;DHT22;2295;51.050;14.608;2023-04-03T06:54:49;-1.20;99.90
4566;DHT22;2295;51.050;14.608;2023-04-03T06:57:25;-1.20;99.90
4566;DHT22;2295;51.050;14.608;2023-04-03T06:59:53;-1.20;99.90
4566;DHT22;2295;51.050;14.608;2023-04-03T07:02:22;-1.10;99.90
4566;DHT22;2295;51.050;14.608;2023-04-03T07:04:50;-1.00;99.90
4566;DHT22;2295;51.050;14.608;2023-04-03T07:07:19;-1.10;99.90
4566;DHT22;2295;51.050;14.608;2023-04-03T07:09:47;-1.00;99.90
4566;DHT22;2295;51.050;14.608;2023-04-03T07:12:16;-0.90;99.90
4566;DHT22;2295;51.050;14.608;2023-04-03T07:14:45;-0.90;99.90
4566;DHT22;2295;51.050;14.608;2023-04-03T07:17:14;-0.80;99.90
4566;DHT22;2295;51.050;14.608;2023-04-03T07:19:42;-0.90;99.90
4566;DHT22;2295;51.050;14.608;2023-04-03T07:22:10;-0.90;99.90
4566;DHT22;2295;51.050;14.608;2023-04-03T07:24:39;-0.70;99.90
4566;DHT22;2295;51.050;14.608;2023-04-03T07:27:08;-0.70;99.90
4566;DHT22;2295;51.050;14.608;2023-04-03T07:29:36;-0.50;99.90
4566;DHT22;2295;51.050;14.608;2023-04-03T07:32:06;-0.60;99.90
4566;DHT22;2295;51.050;14.608;2023-04-03T07:34:38;-0.40;99.90
4566;DHT22;2295;51.050;14.608;2023-04-03T07:37:08;-0.20;99.90
4566;DHT22;2295;51.050;14.608;2023-04-03T07:39:36;-0.10;99.90
4566;DHT22;2295;51.050;14.608;2023-04-03T07:42:05;-0.30;99.90
4566;DHT22;2295;51.050;14.608;2023-04-03T07:44:34;-0.40;99.90
4566;DHT22;2295;51.050;14.608;2023-04-03T07:47:03;-0.40;99.90
4566;DHT22;2295;51.050;14.608;2023-04-03T07:49:33;-0.20;99.90
4566;DHT22;2295;51.050;14.608;2023-04-03T07:52:05;0.00;99.90
4566;DHT22;2295;51.050;14.608;2023-04-03T07:54:34;0.20;99.90
4566;DHT22;2295;51.050;14.608;2023-04-03T07:57:02;0.30;99.90
4566;DHT22;2295;51.050;14.608;2023-04-03T07:59:30;0.40;99.90
4566;DHT22;2295;51.050;14.608;2023-04-03T08:01:59;0.50;99.90
4566;DHT22;2295;51.050;14.608;2023-04-03T08:04:27;0.50;99.90
4566;DHT22;2295;51.050;14.608;2023-04-03T08:06:57;0.80;99.90
4566;DHT22;2295;51.050;14.608;2023-04-03T08:09:30;0.90;99.90
4566;DHT22;2295;51.050;14.608;2023-04-03T08:12:00;1.00;99.90
4566;DHT22;2295;51.050;14.608;2023-04-03T08:14:31;1.40;99.90
4566;DHT22;2295;51.050;14.608;2023-04-03T08:17:01;1.50;99.90
4566;DHT22;2295;51.050;14.608;2023-04-03T08:19:31;1.30;99.90
4566;DHT22;2295;51.050;14.608;2023-04-03T08:22:01;1.40;99.90
4566;DHT22;2295;51.050;14.608;2023-04-03T08:24:31;1.40;99.90
4566;DHT22;2295;51.050;14.608;2023-04-03T08:26:59;1.90;99.90
4566;DHT22;2295;51.050;14.608;2023-04-03T08:29:28;1.90;99.90
4566;DHT22;2295;51.050;14.608;2023-04-03T08:31:58;1.70;99.90
4566;DHT22;2295;51.050;14.608;2023-04-03T08:34:27;1.90;99.90
4566;DHT22;2295;51.050;14.608;2023-04-03T08:36:58;2.10;99.90
4566;DHT22;2295;51.050;14.608;2023-04-03T08:39:28;2.60;99.90
4566;DHT22;2295;51.050;14.608;2023-04-03T08:41:58;2.80;99.90
4566;DHT22;2295;51.050;14.608;2023-04-03T08:44:39;2.80;99.90
4566;DHT22;2295;51.050;14.608;2023-04-03T08:47:18;2.70;99.90
4566;DHT22;2295;51.050;14.608;2023-04-03T08:49:53;3.10;99.90
4566;DHT22;2295;51.050;14.608;2023-04-03T08:52:30;4.20;99.90
4566;DHT22;2295;51.050;14.608;2023-04-03T08:55:05;5.60;99.90
4566;DHT22;2295;51.050;14.608;2023-04-03T08:57:38;6.70;99.90
4566;DHT22;2295;51.050;14.608;2023-04-03T09:00:16;6.90;96.10
4566;DHT22;2295;51.050;14.608;2023-04-03T09:02:47;6.00;99.70
4566;DHT22;2295;51.050;14.608;2023-04-03T09:05:18;5.20;99.90
4566;DHT22;2295;51.050;14.608;2023-04-03T09:07:55;5.10;99.90
4566;DHT22;2295;51.050;14.608;2023-04-03T09:10:29;6.40;99.90
4566;DHT22;2295;51.050;14.608;2023-04-03T09:13:05;8.20;94.60
4566;DHT22;2295;51.050;14.608;2023-04-03T09:15:34;8.20;76.80
4566;DHT22;2295;51.050;14.608;2023-04-03T09:18:11;7.00;77.60
4566;DHT22;2295;51.050;14.608;2023-04-03T09:20:46;6.70;73.90
4566;DHT22;2295;51.050;14.608;2023-04-03T09:23:21;7.00;78.50
4566;DHT22;2295;51.050;14.608;2023-04-03T09:25:57;7.70;81.50
4566;DHT22;2295;51.050;14.608;2023-04-03T09:28:26;8.50;70.60
4566;DHT22;2295;51.050;14.608;2023-04-03T09:31:03;7.70;72.40
4566;DHT22;2295;51.050;14.608;2023-04-03T09:33:34;7.00;74.00
4566;DHT22;2295;51.050;14.608;2023-04-03T09:36:04;6.20;75.60
4566;DHT22;2295;51.050;14.608;2023-04-03T09:38:32;6.30;77.00
4566;DHT22;2295;51.050;14.608;2023-04-03T09:41:11;7.00;78.60
4566;DHT22;2295;51.050;14.608;2023-04-03T09:43:51;7.10;77.40
4566;DHT22;2295;51.050;14.608;2023-04-03T09:46:33;6.10;74.90
4566;DHT22;2295;51.050;14.608;2023-04-03T09:49:10;5.40;86.00
4566;DHT22;2295;51.050;14.608;2023-04-03T09:51:39;4.80;93.50
4566;DHT22;2295;51.050;14.608;2023-04-03T09:54:31;4.90;90.70
4566;DHT22;2295;51.050;14.608;2023-04-03T09:57:07;4.30;80.50
4566;DHT22;2295;51.050;14.608;2023-04-03T09:59:45;3.80;93.30
4566;DHT22;2295;51.050;14.608;2023-04-03T10:02:27;4.30;93.10
4566;DHT22;2295;51.050;14.608;2023-04-03T10:04:57;4.70;89.80
4566;DHT22;2295;51.050;14.608;2023-04-03T10:07:35;4.30;93.60
4566;DHT22;2295;51.050;14.608;2023-04-03T10:10:17;4.00;91.10
4566;DHT22;2295;51.050;14.608;2023-04-03T10:12:49;3.70;94.90
4566;DHT22;2295;51.050;14.608;2023-04-03T10:15:36;3.30;95.50
4566;DHT22;2295;51.050;14.608;2023-04-03T10:18:15;3.20;96.10
4566;DHT22;2295;51.050;14.608;2023-04-03T10:20:51;3.30;92.60
4566;DHT22;2295;51.050;14.608;2023-04-03T10:23:26;3.20;94.50
4566;DHT22;2295;51.050;14.608;2023-04-03T10:26:06;3.00;98.50
4566;DHT22;2295;51.050;14.608;2023-04-03T10:28:46;3.20;94.50
4566;DHT22;2295;51.050;14.608;2023-04-03T10:31:21;3.50;93.20
4566;DHT22;2295;51.050;14.608;2023-04-03T10:33:58;3.70;90.10
4566;DHT22;2295;51.050;14.608;2023-04-03T10:36:36;3.50;91.90
4566;DHT22;2295;51.050;14.608;2023-04-03T10:39:18;4.30;99.00
4566;DHT22;2295;51.050;14.608;2023-04-03T10:41:58;4.90;92.20
4566;DHT22;2295;51.050;14.608;2023-04-03T10:47:54;5.10;89.60
4566;DHT22;2295;51.050;14.608;2023-04-03T10:50:40;4.90;85.60
4566;DHT22;2295;51.050;14.608;2023-04-03T10:53:19;5.20;90.00
4566;DHT22;2295;51.050;14.608;2023-04-03T10:55:54;5.00;83.10
4566;DHT22;2295;51.050;14.608;2023-04-03T10:58:28;4.50;87.60
4566;DHT22;2295;51.050;14.608;2023-04-03T11:01:06;4.20;86.40
4566;DHT22;2295;51.050;14.608;2023-04-03T11:03:38;5.20;80.10
4566;DHT22;2295;51.050;14.608;2023-04-03T11:06:10;5.10;73.60
4566;DHT22;2295;51.050;14.608;2023-04-03T11:08:45;4.60;71.20
4566;DHT22;2295;51.050;14.608;2023-04-03T11:11:17;4.40;76.10
4566;DHT22;2295;51.050;14.608;2023-04-03T11:13:51;4.40;81.10
4566;DHT22;2295;51.050;14.608;2023-04-03T11:16:26;4.40;81.10
4566;DHT22;2295;51.050;14.608;2023-04-03T11:19:01;4.20;83.20
4566;DHT22;2295;51.050;14.608;2023-04-03T11:21:34;4.10;84.70
4566;DHT22;2295;51.050;14.608;2023-04-03T11:24:09;3.80;84.00
4566;DHT22;2295;51.050;14.608;2023-04-03T11:26:41;3.80;89.10
4566;DHT22;2295;51.050;14.608;2023-04-03T11:29:22;3.80;88.50
4566;DHT22;2295;51.050;14.608;2023-04-03T11:32:13;3.70;94.10
4566;DHT22;2295;51.050;14.608;2023-04-03T11:34:52;3.60;98.90
4566;DHT22;2295;51.050;14.608;2023-04-03T11:37:28;3.60;98.90
4566;DHT22;2295;51.050;14.608;2023-04-03T11:40:24;3.50;94.40
4566;DHT22;2295;51.050;14.608;2023-04-03T11:43:02;3.60;98.80
4566;DHT22;2295;51.050;14.608;2023-04-03T11:45:36;3.70;97.40
4566;DHT22;2295;51.050;14.608;2023-04-03T11:51:41;3.60;92.80
4566;DHT22;2295;51.050;14.608;2023-04-03T11:58:03;3.70;91.20
4566;DHT22;2295;51.050;14.608;2023-04-03T12:01:02;3.70;95.70
4566;DHT22;2295;51.050;14.608;2023-04-03T12:04:20;3.50;93.30
4566;DHT22;2295;51.050;14.608;2023-04-03T12:10:17;3.30;94.10
4566;DHT22;2295;51.050;14.608;2023-04-03T12:12:59;3.70;98.00
4566;DHT22;2295;51.050;14.608;2023-04-03T12:15:52;4.10;89.20
4566;DHT22;2295;51.050;14.608;2023-04-03T12:18:55;4.40;90.00
4566;DHT22;2295;51.050;14.608;2023-04-03T12:24:45;4.70;77.30
4566;DHT22;2295;51.050;14.608;2023-04-03T12:27:28;3.90;73.50
4566;DHT22;2295;51.050;14.608;2023-04-03T12:30:05;3.60;76.50
4566;DHT22;2295;51.050;14.608;2023-04-03T12:32:48;3.50;80.70
4566;DHT22;2295;51.050;14.608;2023-04-03T12:35:37;3.40;77.10
4566;DHT22;2295;51.050;14.608;2023-04-03T12:44:01;3.90;75.10
4566;DHT22;2295;51.050;14.608;2023-04-03T12:46:37;4.10;78.10
4566;DHT22;2295;51.050;14.608;2023-04-03T12:49:26;4.40;79.70
4566;DHT22;2295;51.050;14.608;2023-04-03T12:52:00;4.20;76.40
4566;DHT22;2295;51.050;14.608;2023-04-03T12:54:32;4.00;82.70
4566;DHT22;2295;51.050;14.608;2023-04-03T12:57:23;3.90;84.00
4566;DHT22;2295;51.050;14.608;2023-04-03T13:00:31;3.90;81.40
4566;DHT22;2295;51.050;14.608;2023-04-03T13:03:02;4.00;81.60
4566;DHT22;2295;51.050;14.608;2023-04-03T13:05:33;4.20;83.80
4566;DHT22;2295;51.050;14.608;2023-04-03T13:08:06;4.30;81.20
4566;DHT22;2295;51.050;14.608;2023-04-03T13:10:46;4.30;85.30
4566;DHT22;2295;51.050;14.608;2023-04-03T13:13:16;4.40;75.70
4566;DHT22;2295;51.050;14.608;2023-04-03T13:15:48;4.50;76.00
4566;DHT22;2295;51.050;14.608;2023-04-03T13:18:30;4.40;72.10
4566;DHT22;2295;51.050;14.608;2023-04-03T13:21:03;4.30;77.60
4566;DHT22;2295;51.050;14.608;2023-04-03T13:23:37;4.80;89.00
4566;DHT22;2295;51.050;14.608;2023-04-03T13:26:07;5.50;78.10
4566;DHT22;2295;51.050;14.608;2023-04-03T13:28:37;5.10;73.40
4566;DHT22;2295;51.050;14.608;2023-04-03T13:31:20;4.70;75.20
4566;DHT22;2295;51.050;14.608;2023-04-03T13:34:02;4.40;81.90
4566;DHT22;2295;51.050;14.608;2023-04-03T13:36:43;4.20;85.40
4566;DHT22;2295;51.050;14.608;2023-04-03T13:39:23;4.10;86.20
4566;DHT22;2295;51.050;14.608;2023-04-03T13:41:54;4.20;87.50
4566;DHT22;2295;51.050;14.608;2023-04-03T13:44:30;4.20;85.10
4566;DHT22;2295;51.050;14.608;2023-04-03T13:47:38;4.30;89.80
4566;DHT22;2295;51.050;14.608;2023-04-03T13:50:16;4.50;86.10
4566;DHT22;2295;51.050;14.608;2023-04-03T13:53:09;4.50;85.90
4566;DHT22;2295;51.050;14.608;2023-04-03T13:56:17;4.20;87.20
4566;DHT22;2295;51.050;14.608;2023-04-03T13:59:18;3.90;83.60
4566;DHT22;2295;51.050;14.608;2023-04-03T14:01:52;3.80;83.60
4566;DHT22;2295;51.050;14.608;2023-04-03T14:04:32;4.00;79.60
4566;DHT22;2295;51.050;14.608;2023-04-03T14:07:02;4.00;82.10
4566;DHT22;2295;51.050;14.608;2023-04-03T14:09:31;4.10;79.40
4566;DHT22;2295;51.050;14.608;2023-04-03T14:12:04;4.30;76.60
4566;DHT22;2295;51.050;14.608;2023-04-03T14:14:44;4.40;74.30
4566;DHT22;2295;51.050;14.608;2023-04-03T14:17:15;4.40;75.10
4566;DHT22;2295;51.050;14.608;2023-04-03T14:19:54;4.20;75.60
4566;DHT22;2295;51.050;14.608;2023-04-03T14:22:24;3.90;78.40
4566;DHT22;2295;51.050;14.608;2023-04-03T14:24:53;3.80;76.30
4566;DHT22;2295;51.050;14.608;2023-04-03T14:27:25;3.80;76.80
4566;DHT22;2295;51.050;14.608;2023-04-03T14:29:55;3.80;76.90
4566;DHT22;2295;51.050;14.608;2023-04-03T14:32:27;3.90;81.40
4566;DHT22;2295;51.050;14.608;2023-04-03T14:35:03;3.80;77.80
4566;DHT22;2295;51.050;14.608;2023-04-03T14:37:32;3.70;83.60
4566;DHT22;2295;51.050;14.608;2023-04-03T14:40:06;3.50;85.70
4566;DHT22;2295;51.050;14.608;2023-04-03T14:42:37;3.20;86.50
4566;DHT22;2295;51.050;14.608;2023-04-03T14:45:09;3.20;90.40
4566;DHT22;2295;51.050;14.608;2023-04-03T14:47:44;3.40;89.40
4566;DHT22;2295;51.050;14.608;2023-04-03T14:50:19;3.60;89.80
4566;DHT22;2295;51.050;14.608;2023-04-03T14:52:52;3.60;83.40
4566;DHT22;2295;51.050;14.608;2023-04-03T14:55:24;3.50;78.80
4566;DHT22;2295;51.050;14.608;2023-04-03T14:57:54;3.70;80.50
4566;DHT22;2295;51.050;14.608;2023-04-03T15:00:22;4.80;84.30
4566;DHT22;2295;51.050;14.608;2023-04-03T15:02:51;6.10;75.30
4566;DHT22;2295;51.050;14.608;2023-04-03T15:05:21;6.00;65.90
4566;DHT22;2295;51.050;14.608;2023-04-03T15:07:52;6.10;66.70
4566;DHT22;2295;51.050;14.608;2023-04-03T15:10:24;6.60;65.30
4566;DHT22;2295;51.050;14.608;2023-04-03T15:12:53;6.40;64.90
4566;DHT22;2295;51.050;14.608;2023-04-03T15:15:23;5.80;66.60
4566;DHT22;2295;51.050;14.608;2023-04-03T15:17:53;6.50;63.70
4566;DHT22;2295;51.050;14.608;2023-04-03T15:20:26;7.10;60.90
4566;DHT22;2295;51.050;14.608;2023-04-03T15:22:57;8.20;60.60
4566;DHT22;2295;51.050;14.608;2023-04-03T15:25:28;8.90;55.90
4566;DHT22;2295;51.050;14.608;2023-04-03T15:27:57;9.30;55.00
4566;DHT22;2295;51.050;14.608;2023-04-03T15:30:26;9.30;54.20
4566;DHT22;2295;51.050;14.608;2023-04-03T15:32:54;8.60;51.70
4566;DHT22;2295;51.050;14.608;2023-04-03T15:35:27;6.40;56.00
4566;DHT22;2295;51.050;14.608;2023-04-03T15:38:03;5.10;63.00
4566;DHT22;2295;51.050;14.608;2023-04-03T15:40:37;4.40;72.40
4566;DHT22;2295;51.050;14.608;2023-04-03T15:43:22;4.20;79.70
4566;DHT22;2295;51.050;14.608;2023-04-03T15:45:57;3.90;83.70
4566;DHT22;2295;51.050;14.608;2023-04-03T15:48:27;3.70;80.40
4566;DHT22;2295;51.050;14.608;2023-04-03T15:50:57;4.10;82.30
4566;DHT22;2295;51.050;14.608;2023-04-03T15:53:28;5.00;75.90
4566;DHT22;2295;51.050;14.608;2023-04-03T15:55:56;6.20;71.10
4566;DHT22;2295;51.050;14.608;2023-04-03T15:58:25;6.90;65.50
4566;DHT22;2295;51.050;14.608;2023-04-03T16:00:53;7.40;62.40
4566;DHT22;2295;51.050;14.608;2023-04-03T16:03:22;7.90;59.00
4566;DHT22;2295;51.050;14.608;2023-04-03T16:05:51;8.70;59.50
4566;DHT22;2295;51.050;14.608;2023-04-03T16:08:21;9.10;58.90
4566;DHT22;2295;51.050;14.608;2023-04-03T16:10:53;8.80;58.40
4566;DHT22;2295;51.050;14.608;2023-04-03T16:13:24;9.30;58.40
4566;DHT22;2295;51.050;14.608;2023-04-03T16:15:53;9.30;56.40
4566;DHT22;2295;51.050;14.608;2023-04-03T16:18:22;8.40;56.20
4566;DHT22;2295;51.050;14.608;2023-04-03T16:20:57;7.10;57.00
4566;DHT22;2295;51.050;14.608;2023-04-03T16:23:27;6.00;62.40
4566;DHT22;2295;51.050;14.608;2023-04-03T16:25:55;5.10;66.30
4566;DHT22;2295;51.050;14.608;2023-04-03T16:28:24;4.60;73.30
4566;DHT22;2295;51.050;14.608;2023-04-03T16:30:55;4.20;76.90
4566;DHT22;2295;51.050;14.608;2023-04-03T16:33:24;3.80;83.80
4566;DHT22;2295;51.050;14.608;2023-04-03T16:35:53;3.50;91.00
4566;DHT22;2295;51.050;14.608;2023-04-03T16:38:21;3.30;94.10
4566;DHT22;2295;51.050;14.608;2023-04-03T16:40:54;3.00;96.70
4566;DHT22;2295;51.050;14.608;2023-04-03T16:43:26;2.80;94.00
4566;DHT22;2295;51.050;14.608;2023-04-03T16:45:54;2.70;96.70
4566;DHT22;2295;51.050;14.608;2023-04-03T16:48:26;2.50;95.50
4566;DHT22;2295;51.050;14.608;2023-04-03T16:50:55;2.40;99.90
4566;DHT22;2295;51.050;14.608;2023-04-03T16:53:25;2.30;99.50
4566;DHT22;2295;51.050;14.608;2023-04-03T16:55:57;2.20;99.90
4566;DHT22;2295;51.050;14.608;2023-04-03T16:58:26;2.10;99.90
4566;DHT22;2295;51.050;14.608;2023-04-03T17:00:55;2.10;99.90
4566;DHT22;2295;51.050;14.608;2023-04-03T17:03:23;2.00;99.90
4566;DHT22;2295;51.050;14.608;2023-04-03T17:05:53;2.00;99.90
4566;DHT22;2295;51.050;14.608;2023-04-03T17:08:21;1.90;99.90
4566;DHT22;2295;51.050;14.608;2023-04-03T17:10:52;1.90;99.90
4566;DHT22;2295;51.050;14.608;2023-04-03T17:13:23;1.80;99.90
4566;DHT22;2295;51.050;14.608;2023-04-03T17:15:58;1.80;99.90
4566;DHT22;2295;51.050;14.608;2023-04-03T17:18:31;1.70;99.90
4566;DHT22;2295;51.050;14.608;2023-04-03T17:21:03;1.60;99.90
4566;DHT22;2295;51.050;14.608;2023-04-03T17:23:36;1.60;99.90
4566;DHT22;2295;51.050;14.608;2023-04-03T17:26:09;1.50;99.90
4566;DHT22;2295;51.050;14.608;2023-04-03T17:28:41;1.50;99.90
4566;DHT22;2295;51.050;14.608;2023-04-03T17:31:24;1.40;99.90
4566;DHT22;2295;51.050;14.608;2023-04-03T17:33:52;1.40;99.90
4566;DHT22;2295;51.050;14.608;2023-04-03T17:36:23;1.30;99.90
4566;DHT22;2295;51.050;14.608;2023-04-03T17:38:55;1.30;99.90
4566;DHT22;2295;51.050;14.608;2023-04-03T17:41:26;1.20;99.90
4566;DHT22;2295;51.050;14.608;2023-04-03T17:43:56;1.10;99.90
4566;DHT22;2295;51.050;14.608;2023-04-03T17:46:24;1.10;99.90
4566;DHT22;2295;51.050;14.608;2023-04-03T17:48:53;1.10;99.90
4566;DHT22;2295;51.050;14.608;2023-04-03T17:51:22;1.10;99.90
4566;DHT22;2295;51.050;14.608;2023-04-03T17:53:51;1.00;99.90
4566;DHT22;2295;51.050;14.608;2023-04-03T17:56:21;0.90;99.90
4566;DHT22;2295;51.050;14.608;2023-04-03T17:58:50;0.90;99.90
4566;DHT22;2295;51.050;14.608;2023-04-03T18:01:23;0.80;99.90
4566;DHT22;2295;51.050;14.608;2023-04-03T18:03:53;0.70;99.90
4566;DHT22;2295;51.050;14.608;2023-04-03T18:06:26;0.70;99.90
4566;DHT22;2295;51.050;14.608;2023-04-03T18:09:00;0.60;99.90
4566;DHT22;2295;51.050;14.608;2023-04-03T18:11:33;0.50;99.90
4566;DHT22;2295;51.050;14.608;2023-04-03T18:14:03;0.40;99.90
4566;DHT22;2295;51.050;14.608;2023-04-03T18:16:35;0.30;99.90
4566;DHT22;2295;51.050;14.608;2023-04-03T18:19:04;0.30;99.90
4566;DHT22;2295;51.050;14.608;2023-04-03T18:21:48;0.40;99.90
4566;DHT22;2295;51.050;14.608;2023-04-03T18:24:24;0.40;99.90
4566;DHT22;2295;51.050;14.608;2023-04-03T18:26:57;0.40;99.90
4566;DHT22;2295;51.050;14.608;2023-04-03T18:29:28;0.50;99.90
4566;DHT22;2295;51.050;14.608;2023-04-03T18:32:02;0.50;99.90
4566;DHT22;2295;51.050;14.608;2023-04-03T18:34:34;0.60;99.90
4566;DHT22;2295;51.050;14.608;2023-04-03T18:37:02;0.60;99.90
4566;DHT22;2295;51.050;14.608;2023-04-03T18:39:32;0.60;99.90
4566;DHT22;2295;51.050;14.608;2023-04-03T18:42:04;0.70;99.90
4566;DHT22;2295;51.050;14.608;2023-04-03T18:44:37;0.70;99.90
4566;DHT22;2295;51.050;14.608;2023-04-03T18:47:08;0.70;99.90
4566;DHT22;2295;51.050;14.608;2023-04-03T18:49:40;0.70;99.90
4566;DHT22;2295;51.050;14.608;2023-04-03T18:52:18;0.70;99.90
4566;DHT22;2295;51.050;14.608;2023-04-03T18:54:47;0.70;99.90
4566;DHT22;2295;51.050;14.608;2023-04-03T18:57:16;0.70;99.90
4566;DHT22;2295;51.050;14.608;2023-04-03T18:59:44;0.80;99.90
4566;DHT22;2295;51.050;14.608;2023-04-03T19:02:14;0.80;99.90
4566;DHT22;2295;51.050;14.608;2023-04-03T19:04:44;0.70;99.90
4566;DHT22;2295;51.050;14.608;2023-04-03T19:07:25;0.80;99.90
4566;DHT22;2295;51.050;14.608;2023-04-03T19:09:55;0.80;99.90
4566;DHT22;2295;51.050;14.608;2023-04-03T19:12:24;0.80;99.90
4566;DHT22;2295;51.050;14.608;2023-04-03T19:14:59;0.80;99.90
4566;DHT22;2295;51.050;14.608;2023-04-03T19:17:29;0.80;99.90
4566;DHT22;2295;51.050;14.608;2023-04-03T19:19:57;0.80;99.90
4566;DHT22;2295;51.050;14.608;2023-04-03T19:22:32;0.80;99.90
4566;DHT22;2295;51.050;14.608;2023-04-03T19:25:05;0.70;99.90
4566;DHT22;2295;51.050;14.608;2023-04-03T19:27:39;0.70;99.90
4566;DHT22;2295;51.050;14.608;2023-04-03T19:30:10;0.80;99.90
4566;DHT22;2295;51.050;14.608;2023-04-03T19:32:40;0.70;99.90
4566;DHT22;2295;51.050;14.608;2023-04-03T19:35:13;0.70;99.90
4566;DHT22;2295;51.050;14.608;2023-04-03T19:37:56;0.70;99.90
4566;DHT22;2295;51.050;14.608;2023-04-03T19:40:27;0.80;99.90
4566;DHT22;2295;51.050;14.608;2023-04-03T19:43:01;0.80;99.90